Time;durP1;ratioP1;P1;durP2;ratioP2;P2;SDS_P1;SDS_P2;PMS_P1;PMS_P2;Temp;Humidity;BMP_temperature;BMP_pressure;BME280_temperature;BME280_humidity;BME280_pressure;Samples;Min_cycle;Max_cycle;Signal;HPM_P1;HPM_P2
2022/06/16 00:02:06;;;;;;;6.50;5.00;;;;;;;13.06;67.61;98910.56;221541;1269;25310;-70
2022/06/16 00:07:17;;;;;;;7.60;5.30;;;;;;;13.00;68.06;98909.55;221420;1270;25243;-71
2022/06/16 00:12:20;;;;;;;8.00;5.90;;;;;;;12.96;68.07;98908.19;221735;1270;22603;-71
2022/06/16 00:17:22;;;;;;;11.30;6.00;;;;;;;12.89;68.22;98907.03;221230;1270;223775;-72
2022/06/16 00:22:32;;;;;;;9.60;6.00;;;;;;;12.79;68.32;98896.36;221316;1270;25232;-71
2022/06/16 00:27:34;;;;;;;7.10;5.20;;;;;;;12.71;68.56;98888.59;221789;1270;22592;-70
2022/06/16 00:32:41;;;;;;;6.50;5.10;;;;;;;12.63;68.75;98887.19;221430;1270;23029;-72
2022/06/16 00:37:44;;;;;;;6.10;5.20;;;;;;;12.56;68.89;98882.70;221746;1270;26376;-70
2022/06/16 00:42:55;;;;;;;6.20;5.40;;;;;;;12.50;68.98;98880.17;221584;1270;22580;-71
2022/06/16 00:47:58;;;;;;;7.60;5.20;;;;;;;12.43;69.25;98882.55;221508;1270;24617;-71
2022/06/16 00:53:03;;;;;;;7.80;5.50;;;;;;;12.39;69.67;98877.31;221667;1270;25364;-70
2022/06/16 00:58:07;;;;;;;7.20;5.60;;;;;;;12.35;69.70;98870.50;221520;1270;26429;-71
2022/06/16 01:03:09;;;;;;;9.00;5.40;;;;;;;12.32;69.91;98867.94;221735;1269;22539;-72
2022/06/16 01:08:12;;;;;;;9.00;6.00;;;;;;;12.29;70.35;98870.35;220581;1270;22559;-71
2022/06/16 01:14:01;;;;;;;;;;;;;;;;;;;;;
2022/06/16 01:19:41;;;;;;;6.80;5.50;;;;;;;12.22;70.24;98863.79;221645;1270;24222;-71
2022/06/16 01:25:00;;;;;;;7.80;6.30;;;;;;;12.13;70.52;98856.29;221675;1268;22553;-71
2022/06/16 01:30:14;;;;;;;6.50;5.70;;;;;;;12.06;70.83;98853.62;221635;1270;24773;-71
2022/06/16 01:35:22;;;;;;;9.50;6.40;;;;;;;12.02;71.11;98849.58;221645;1270;22538;-71
2022/06/16 01:41:04;;;;;;;10.50;6.30;;;;;;;12.00;71.49;98855.08;221505;1269;22528;-72
2022/06/16 01:46:26;;;;;;;9.80;6.60;;;;;;;11.95;71.71;98854.14;221219;1270;22569;-72
2022/06/16 01:51:45;;;;;;;11.20;6.50;;;;;;;11.92;71.85;98851.17;221895;1270;25371;-71
2022/06/16 01:56:54;;;;;;;8.50;6.70;;;;;;;11.89;71.80;98846.48;221460;1270;23373;-71
2022/06/16 02:02:43;;;;;;;7.70;6.20;;;;;;;11.86;71.92;98846.05;221856;1270;22547;-72
2022/06/16 02:08:13;;;;;;;8.80;6.10;;;;;;;11.86;72.13;98851.64;221482;1270;22713;-72
2022/06/16 02:13:26;;;;;;;7.90;5.80;;;;;;;11.86;72.12;98855.67;221624;1268;26487;-71
2022/06/16 02:18:33;;;;;;;10.20;6.80;;;;;;;11.81;72.16;98853.77;221964;1270;22545;-72
2022/06/16 02:23:44;;;;;;;9.00;6.80;;;;;;;11.78;72.33;98856.93;221484;1270;22765;-71
2022/06/16 02:28:50;;;;;;;11.20;7.20;;;;;;;11.74;72.46;98850.65;221420;1270;22545;-70
2022/06/16 02:34:17;;;;;;;9.80;7.40;;;;;;;11.70;72.58;98849.34;221546;1270;22582;-72
2022/06/16 02:40:00;;;;;;;10.20;7.20;;;;;;;11.65;72.71;98848.23;221573;1267;22573;-71
2022/06/16 02:45:50;;;;;;;7.40;6.50;;;;;;;11.61;72.95;98854.08;221521;1270;26409;-72
2022/06/16 02:52:25;;;;;;;12.60;6.90;;;;;;;11.55;73.02;98849.02;221449;1270;25345;-71
2022/06/16 03:05:21;;;;;;;7.90;6.60;;;;;;;11.48;73.14;98852.27;221592;1270;23000;-71
2022/06/16 03:10:51;;;;;;;11.80;8.30;;;;;;;11.45;73.42;98851.59;221812;1268;22564;-72
2022/06/16 03:16:39;;;;;;;7.50;6.20;;;;;;;11.48;73.57;98850.59;221796;1270;23268;-71
2022/06/16 03:21:42;;;;;;;9.30;6.70;;;;;;;11.60;73.91;98850.18;221512;1271;25270;-71
2022/06/16 03:26:46;;;;;;;7.30;6.50;;;;;;;11.94;74.24;98853.29;221299;1270;26431;-72
2022/06/16 03:31:52;;;;;;;12.20;7.20;;;;;;;12.45;74.12;98853.08;221428;1270;22534;-71
2022/06/16 03:36:58;;;;;;;7.40;6.00;;;;;;;13.08;73.75;98857.80;221761;1270;25232;-71
2022/06/16 03:42:11;;;;;;;7.10;5.50;;;;;;;13.65;72.58;98855.42;221809;1268;23171;-72
2022/06/16 03:47:14;;;;;;;8.20;5.90;;;;;;;14.09;71.55;98853.51;221396;1270;22606;-71
2022/06/16 03:52:26;;;;;;;6.90;5.50;;;;;;;14.46;70.72;98855.23;221332;1270;25301;-72
2022/06/16 03:57:45;;;;;;;7.50;5.90;;;;;;;14.85;69.90;98851.29;221486;1271;24162;-70
2022/06/16 04:03:59;;;;;;;8.10;5.90;;;;;;;15.27;69.52;98850.63;221592;1270;23294;-71
2022/06/16 04:08:23;;;;;;;7.10;5.50;;;;;;;15.81;68.60;98846.67;221696;1270;24107;-72
2022/06/16 04:13:29;;;;;;;6.90;5.60;;;;;;;16.15;67.65;98844.53;221857;1269;22587;-70
2022/06/16 04:18:34;;;;;;;9.30;5.80;;;;;;;16.28;67.11;98840.41;221641;1270;22556;-71
2022/06/16 04:23:47;;;;;;;8.10;6.40;;;;;;;16.23;66.69;98838.05;221606;1270;23110;-71
2022/06/16 04:28:54;;;;;;;11.30;6.60;;;;;;;16.05;66.57;98836.88;221694;1270;24221;-71
2022/06/16 04:34:05;;;;;;;10.30;6.70;;;;;;;15.93;66.87;98833.05;221422;1270;22619;-71
2022/06/16 04:39:13;;;;;;;8.90;6.70;;;;;;;15.84;67.24;98834.91;221500;1271;24342;-71
2022/06/16 04:44:24;;;;;;;8.30;6.70;;;;;;;15.72;67.47;98832.90;221762;1270;22985;-72
2022/06/16 04:49:29;;;;;;;8.70;6.90;;;;;;;15.67;67.89;98831.25;221658;1271;22541;-72
2022/06/16 04:54:32;;;;;;;10.70;7.00;;;;;;;15.76;68.46;98833.48;221971;1268;25294;-72
2022/06/16 04:59:58;;;;;;;7.60;5.60;;;;;;;15.94;68.74;98825.08;221577;1268;22569;-72
2022/06/16 05:05:29;;;;;;;7.40;4.70;;;;;;;16.19;68.23;98825.39;221846;1269;24262;-71
2022/06/16 05:11:04;;;;;;;6.10;4.30;;;;;;;16.45;67.41;98822.63;221705;1269;23965;-72
2022/06/16 05:16:51;;;;;;;8.80;4.70;;;;;;;16.66;66.34;98819.90;221559;1271;22499;-72
2022/06/16 05:22:18;;;;;;;5.40;4.30;;;;;;;16.81;66.01;98816.60;221679;1268;22549;-71
2022/06/16 05:27:49;;;;;;;;;;;;;;;;;;;;;
2022/06/16 05:33:21;;;;;;;6.00;3.90;;;;;;;17.20;64.87;98818.68;220712;1270;24232;-71
2022/06/16 05:38:45;;;;;;;4.90;3.70;;;;;;;17.29;64.21;98809.55;221152;1270;22624;-72
2022/06/16 05:44:07;;;;;;;5.40;4.00;;;;;;;17.41;64.20;98806.40;221515;1268;25344;-71
2022/06/16 05:49:33;;;;;;;5.40;4.00;;;;;;;17.56;63.78;98808.34;221635;1270;25302;-72
2022/06/16 05:54:44;;;;;;;6.90;4.70;;;;;;;17.73;63.58;98807.29;221816;1268;22472;-71
2022/06/16 05:59:50;;;;;;;5.10;3.80;;;;;;;17.92;63.30;98805.77;221685;1268;22688;-70
2022/06/16 06:05:11;;;;;;;4.10;3.60;;;;;;;18.16;63.32;98808.13;221790;1268;22531;-71
2022/06/16 06:21:00;;;;;;;5.40;3.90;;;;;;;18.84;62.55;98804.71;221579;1268;23800;-72
2022/06/16 06:26:03;;;;;;;3.80;3.20;;;;;;;19.16;62.68;98805.17;221332;1268;22581;-71
2022/06/16 06:31:39;;;;;;;4.80;3.50;;;;;;;19.57;62.03;98800.01;221762;1268;25467;-72
2022/06/16 06:37:02;;;;;;;5.70;3.80;;;;;;;19.87;60.65;98801.02;221712;1268;22736;-71
2022/06/16 06:42:10;;;;;;;5.80;3.70;;;;;;;20.17;60.29;98796.70;221567;1268;22615;-71
2022/06/16 06:47:22;;;;;;;6.30;3.70;;;;;;;20.40;59.68;98795.52;221617;1268;24140;-71
2022/06/16 06:52:24;;;;;;;3.80;3.30;;;;;;;20.56;59.19;98790.21;221452;1268;26412;-73
2022/06/16 06:57:30;;;;;;;6.20;3.50;;;;;;;20.83;59.13;98790.90;221694;1268;25304;-71
2022/06/16 07:02:33;;;;;;;6.00;3.80;;;;;;;21.11;58.26;98792.42;221522;1270;25378;-71
2022/06/16 07:07:38;;;;;;;4.60;3.10;;;;;;;21.41;58.19;98787.24;221298;1270;26396;-71
2022/06/16 07:12:42;;;;;;;4.00;3.50;;;;;;;21.72;58.29;98783.77;221656;1268;22494;-71
2022/06/16 07:17:44;;;;;;;3.50;3.10;;;;;;;22.10;58.09;98784.02;221573;1270;23540;-71
2022/06/16 07:23:10;;;;;;;4.00;3.60;;;;;;;22.43;57.00;98786.18;221488;1271;22554;-73
2022/06/16 07:28:32;;;;;;;4.20;3.80;;;;;;;22.68;55.91;98776.17;221697;1270;25484;-71
2022/06/16 07:33:47;;;;;;;4.50;3.70;;;;;;;22.93;55.45;98774.30;221823;1268;25306;-72
2022/06/16 07:38:49;;;;;;;4.00;3.40;;;;;;;23.14;54.81;98778.72;221701;1268;22728;-72
2022/06/16 07:43:53;;;;;;;3.40;3.10;;;;;;;23.32;53.79;98775.63;221544;1268;22744;-71
2022/06/16 07:48:56;;;;;;;3.70;3.40;;;;;;;23.48;53.14;98776.98;221449;1268;22566;-71
2022/06/16 07:53:58;;;;;;;4.00;3.60;;;;;;;23.68;52.84;98778.02;221485;1268;22591;-72
2022/06/16 07:59:01;;;;;;;5.30;3.80;;;;;;;23.88;52.00;98782.83;221187;1270;23081;-71
2022/06/16 08:04:06;;;;;;;4.40;3.80;;;;;;;24.05;52.20;98777.61;221079;1270;22812;-72
2022/06/16 08:09:11;;;;;;;4.10;3.70;;;;;;;24.13;51.23;98774.30;221620;1267;24533;-72
2022/06/16 08:14:14;;;;;;;4.90;4.00;;;;;;;24.18;51.29;98773.16;221465;1270;24362;-71
2022/06/16 08:19:37;;;;;;;4.90;3.60;;;;;;;24.38;51.54;98771.48;221890;1268;22747;-73
2022/06/16 08:24:40;;;;;;;4.90;4.30;;;;;;;24.50;50.00;98772.81;221383;1268;22612;-71
2022/06/16 08:29:44;;;;;;;4.40;4.00;;;;;;;24.47;49.81;98771.48;221222;1270;22589;-71
2022/06/16 08:34:48;;;;;;;5.40;3.60;;;;;;;24.50;50.13;98761.70;221758;1268;22542;-72
2022/06/16 08:39:51;;;;;;;4.30;3.90;;;;;;;24.57;50.09;98760.42;221803;1268;22560;-72
2022/06/16 08:45:02;;;;;;;6.20;4.10;;;;;;;24.82;50.49;98754.70;221973;1268;22556;-71
2022/06/16 08:50:46;;;;;;;6.60;4.30;;;;;;;25.09;49.66;98755.52;222082;1268;22817;-71
2022/06/16 08:56:16;;;;;;;4.30;3.70;;;;;;;25.48;49.23;98755.23;221787;1268;22614;-72
2022/06/16 09:01:29;;;;;;;3.80;3.50;;;;;;;25.84;49.25;98756.21;221809;1268;24250;-72
2022/06/16 09:06:45;;;;;;;3.80;3.30;;;;;;;26.17;47.78;98763.60;222289;1268;22526;-72
2022/06/16 09:11:57;;;;;;;4.90;3.50;;;;;;;26.50;46.08;98768.80;221589;1270;22601;-72
2022/06/16 09:17:13;;;;;;;5.10;3.80;;;;;;;26.60;45.62;98772.48;221716;1268;22692;-72
2022/06/16 09:22:57;;;;;;;4.70;4.10;;;;;;;26.72;44.25;98762.89;221617;1270;22560;-72
2022/06/16 09:28:07;;;;;;;4.10;3.30;;;;;;;26.62;43.29;98756.52;221504;1270;22561;-71
2022/06/16 09:33:17;;;;;;;3.60;3.30;;;;;;;26.59;43.96;98752.38;221881;1269;23797;-72
2022/06/16 09:38:38;;;;;;;4.00;3.30;;;;;;;26.68;44.17;98754.64;221539;1270;22497;-72
2022/06/16 09:43:46;;;;;;;4.10;3.70;;;;;;;26.69;44.51;98755.98;221574;1268;22667;-72
2022/06/16 09:49:24;;;;;;;4.50;3.10;;;;;;;26.84;44.67;98760.72;222019;1268;22553;-71
2022/06/16 09:54:51;;;;;;;3.70;3.50;;;;;;;26.79;43.57;98768.20;221651;1270;25409;-71
2022/06/16 10:00:16;;;;;;;3.80;3.50;;;;;;;26.55;44.51;98762.91;222041;1268;23256;-72
2022/06/16 10:05:59;;;;;;;4.60;3.90;;;;;;;26.72;44.89;98754.64;221482;1268;24811;-72
2022/06/16 10:11:26;;;;;;;3.80;3.40;;;;;;;26.80;43.64;98751.16;221568;1268;22591;-71
2022/06/16 10:17:04;;;;;;;3.80;3.50;;;;;;;26.76;43.08;98747.16;221776;1268;25518;-71
2022/06/16 10:22:08;;;;;;;3.80;3.20;;;;;;;26.79;42.64;98741.81;221790;1269;25303;-72
2022/06/16 10:27:21;;;;;;;4.20;3.40;;;;;;;26.94;42.25;98740.41;221823;1269;23333;-72
2022/06/16 10:32:42;;;;;;;3.30;2.80;;;;;;;27.29;42.51;98744.88;221383;1270;22605;-71
2022/06/16 10:37:51;;;;;;;3.40;3.10;;;;;;;27.25;40.17;98749.14;221608;1268;22702;-71
2022/06/16 10:43:05;;;;;;;3.30;3.00;;;;;;;26.95;39.98;98746.70;221773;1268;22549;-71
2022/06/16 10:48:25;;;;;;;4.70;2.80;;;;;;;27.03;41.42;98746.73;221705;1268;24260;-71
2022/06/16 10:53:38;;;;;;;3.80;3.40;;;;;;;27.69;42.13;98743.61;221794;1268;26368;-71
2022/06/16 10:59:08;;;;;;;3.50;3.20;;;;;;;28.01;41.78;98741.48;221957;1268;22960;-70
2022/06/16 11:04:19;;;;;;;3.00;2.80;;;;;;;28.21;40.51;98746.34;221469;1270;22571;-71
2022/06/16 11:09:25;;;;;;;3.30;3.00;;;;;;;28.05;37.91;98743.49;221775;1268;24689;-71
2022/06/16 11:14:36;;;;;;;4.20;3.00;;;;;;;27.68;39.42;98741.58;221906;1268;25385;-71
2022/06/16 11:19:48;;;;;;;3.60;3.30;;;;;;;27.30;40.79;98734.11;221595;1270;22556;-72
2022/06/16 11:25:30;;;;;;;3.90;3.30;;;;;;;26.95;41.59;98733.89;221877;1268;22578;-72
2022/06/16 11:30:38;;;;;;;3.50;3.30;;;;;;;26.83;42.54;98725.16;221718;1268;24224;-71
2022/06/16 11:35:50;;;;;;;3.70;3.40;;;;;;;26.84;43.03;98716.91;221560;1268;22559;-72
2022/06/16 11:41:04;;;;;;;3.80;3.50;;;;;;;26.99;42.95;98709.54;221518;1268;24375;-72
2022/06/16 11:46:25;;;;;;;4.70;3.40;;;;;;;27.53;43.28;98709.13;221684;1268;22634;-71
2022/06/16 11:52:05;;;;;;;3.50;3.20;;;;;;;28.10;42.45;98705.14;221685;1268;22914;-72
2022/06/16 11:57:32;;;;;;;5.10;3.60;;;;;;;28.50;41.39;98697.55;221452;1270;22546;-72
2022/06/16 12:02:36;;;;;;;5.30;4.60;;;;;;;28.64;40.76;98695.20;221552;1268;24350;-71
2022/06/16 12:08:00;;;;;;;3.90;3.60;;;;;;;28.42;39.72;98693.08;221938;1268;22648;-70
2022/06/16 12:13:08;;;;;;;4.50;3.20;;;;;;;27.97;40.16;98695.42;221175;1270;223933;-71
2022/06/16 12:18:17;;;;;;;4.80;3.40;;;;;;;27.47;40.25;98693.31;221743;1268;24234;-71
2022/06/16 12:23:33;;;;;;;4.60;4.20;;;;;;;27.05;41.22;98689.00;221880;1268;24898;-72
2022/06/16 12:28:54;;;;;;;5.10;3.90;;;;;;;26.78;41.46;98683.17;221714;1270;23504;-71
2022/06/16 12:34:02;;;;;;;5.40;3.80;;;;;;;26.54;42.08;98687.48;221586;1270;22568;-71
2022/06/16 12:39:12;;;;;;;3.90;3.60;;;;;;;26.40;42.99;98690.75;221862;1268;22533;-71
2022/06/16 12:44:47;;;;;;;4.60;4.20;;;;;;;26.26;44.39;98685.31;221586;1270;24689;-71
2022/06/16 12:50:02;;;;;;;3.70;3.40;;;;;;;26.23;44.60;98685.00;221724;1268;22697;-71
2022/06/16 12:55:27;;;;;;;4.70;3.00;;;;;;;26.10;43.63;98684.33;221827;1270;23223;-71
2022/06/16 13:00:36;;;;;;;4.20;3.30;;;;;;;25.52;44.21;98672.19;221654;1268;26432;-71
2022/06/16 13:05:39;;;;;;;4.20;3.90;;;;;;;24.79;45.42;98661.23;221691;1268;22689;-71
2022/06/16 13:10:49;;;;;;;3.90;3.50;;;;;;;24.33;46.42;98671.29;221717;1269;22548;-72
2022/06/16 13:15:55;;;;;;;4.20;3.60;;;;;;;24.02;47.53;98693.69;221791;1268;25336;-72
2022/06/16 13:21:05;;;;;;;4.50;3.60;;;;;;;23.62;49.31;98721.25;221671;1268;25232;-72
2022/06/16 13:26:24;;;;;;;4.60;3.80;;;;;;;22.98;51.66;98745.25;221539;1270;25443;-71
2022/06/16 13:32:02;;;;;;;3.20;2.50;;;;;;;22.04;53.10;98743.08;221604;1270;22532;-71
2022/06/16 13:37:04;;;;;;;3.00;2.70;;;;;;;21.16;55.28;98719.13;221861;1270;24203;-72
2022/06/16 13:42:21;;;;;;;14.50;12.20;;;;;;;20.64;57.30;98702.38;221558;1270;23372;-70
2022/06/16 13:47:23;;;;;;;4.20;3.80;;;;;;;20.27;59.51;98696.37;221890;1268;22575;-72
2022/06/16 13:52:31;;;;;;;4.40;3.30;;;;;;;19.93;62.06;98702.36;221948;1268;25362;-71
2022/06/16 13:57:37;;;;;;;4.40;4.00;;;;;;;19.64;63.88;98712.70;221678;1268;25259;-71
2022/06/16 14:02:58;;;;;;;5.80;4.80;;;;;;;19.54;64.83;98713.36;221565;1268;23868;-71
2022/06/16 14:08:07;;;;;;;4.20;3.80;;;;;;;19.47;66.44;98711.79;221604;1268;22526;-72
2022/06/16 14:13:50;;;;;;;4.20;3.70;;;;;;;19.41;67.46;98723.13;221503;1268;22561;-71
2022/06/16 14:19:02;;;;;;;3.50;3.10;;;;;;;19.37;68.47;98708.88;221478;1268;26324;-72
2022/06/16 14:24:40;;;;;;;3.20;3.00;;;;;;;19.37;69.70;98692.43;221612;1268;22551;-72
2022/06/16 14:30:04;;;;;;;3.40;3.10;;;;;;;19.39;69.76;98694.66;221628;1269;22601;-71
2022/06/16 14:41:48;;;;;;;3.50;2.90;;;;;;;19.58;69.44;98701.90;221642;1268;26703;-72
2022/06/16 14:47:15;;;;;;;3.60;3.10;;;;;;;19.73;69.21;98704.54;221161;1270;23224;-72
2022/06/16 14:52:27;;;;;;;3.70;3.40;;;;;;;19.93;68.96;98701.30;221615;1268;22535;-71
2022/06/16 14:57:31;;;;;;;3.70;3.30;;;;;;;20.09;68.38;98685.34;221633;1268;24227;-72
2022/06/16 15:02:40;;;;;;;3.40;3.10;;;;;;;20.12;67.87;98669.80;221803;1269;22600;-72
2022/06/16 15:07:49;;;;;;;5.00;3.40;;;;;;;20.09;67.82;98661.65;221870;1268;22668;-72
2022/06/16 15:12:53;;;;;;;3.80;3.50;;;;;;;20.07;67.21;98664.71;221646;1270;24154;-71
2022/06/16 15:18:16;;;;;;;2.70;2.50;;;;;;;20.00;67.01;98673.95;221793;1268;22514;-71
2022/06/16 15:23:50;;;;;;;3.10;2.80;;;;;;;19.88;67.42;98691.31;221575;1270;25309;-71
2022/06/16 15:29:05;;;;;;;3.50;3.00;;;;;;;19.74;67.87;98718.27;221483;1268;22549;-74
2022/06/16 15:39:51;;;;;;;3.90;3.00;;;;;;;19.77;68.06;98728.38;221675;1268;22605;-71
2022/06/16 15:44:59;;;;;;;3.30;2.90;;;;;;;19.79;67.79;98714.09;221941;1269;23835;-72
2022/06/16 15:50:14;;;;;;;3.40;3.10;;;;;;;19.88;67.74;98713.66;221866;1267;25286;-71
2022/06/16 15:55:28;;;;;;;4.40;3.70;;;;;;;19.94;67.68;98707.16;221540;1270;22579;-72
2022/06/16 16:00:33;;;;;;;3.40;3.10;;;;;;;20.04;67.42;98696.58;221721;1270;22684;-71
2022/06/16 16:05:40;;;;;;;4.30;3.70;;;;;;;20.09;67.26;98690.23;221566;1270;25306;-71
2022/06/16 16:10:51;;;;;;;3.30;3.10;;;;;;;20.12;67.24;98692.95;221250;1270;22659;-72
2022/06/16 16:15:53;;;;;;;4.30;3.90;;;;;;;20.22;67.26;98683.15;221791;1270;22743;-71
2022/06/16 16:21:03;;;;;;;5.50;4.50;;;;;;;20.26;67.49;98687.98;221576;1268;24227;-73
2022/06/16 16:26:14;;;;;;;4.40;3.50;;;;;;;20.36;67.96;98700.15;221839;1268;24100;-71
2022/06/16 16:31:19;;;;;;;4.80;4.10;;;;;;;20.25;67.83;98710.58;221894;1268;22576;-73
2022/06/16 16:36:29;;;;;;;33.70;29.40;;;;;;;20.17;67.60;98734.64;221566;1268;22677;-71
2022/06/16 16:47:07;;;;;;;3.70;3.30;;;;;;;20.20;67.62;98758.63;221363;1268;22597;-72
2022/06/16 16:52:19;;;;;;;3.70;3.40;;;;;;;20.19;67.48;98762.19;221510;1268;22565;-72
2022/06/16 16:57:22;;;;;;;3.70;2.90;;;;;;;20.16;67.57;98767.64;221388;1268;25361;-72
2022/06/16 17:02:24;;;;;;;3.70;3.40;;;;;;;20.09;67.37;98765.67;221349;1270;24253;-71
2022/06/16 17:07:29;;;;;;;4.20;3.80;;;;;;;20.08;67.21;98765.66;221495;1268;24858;-72
2022/06/16 17:12:35;;;;;;;4.00;3.60;;;;;;;20.10;67.56;98767.48;221853;1268;22553;-72
2022/06/16 17:17:38;;;;;;;6.30;3.80;;;;;;;19.99;67.63;98753.33;221730;1270;22529;-71
2022/06/16 17:22:41;;;;;;;6.10;4.10;;;;;;;19.85;67.64;98753.59;221587;1270;22543;-72
2022/06/16 17:27:46;;;;;;;4.10;3.70;;;;;;;19.81;67.71;98768.64;221692;1270;22543;-71
2022/06/16 17:32:48;;;;;;;4.00;3.60;;;;;;;19.75;68.19;98781.60;221922;1270;22609;-72
2022/06/16 17:37:52;;;;;;;3.90;3.50;;;;;;;19.66;69.03;98785.86;221817;1268;22541;-71
2022/06/16 17:42:56;;;;;;;4.20;3.60;;;;;;;19.52;69.74;98786.82;221807;1268;23500;-72
2022/06/16 17:48:01;;;;;;;4.10;3.70;;;;;;;19.41;70.79;98782.27;221881;1270;23821;-71
2022/06/16 18:03:53;;;;;;;6.60;6.00;;;;;;;19.61;73.43;98727.66;221616;1270;22708;-71
2022/06/16 18:09:05;;;;;;;6.40;5.80;;;;;;;19.46;73.30;98732.64;221610;1270;22705;-71
2022/06/16 18:14:10;;;;;;;7.00;6.20;;;;;;;19.26;73.31;98756.88;221638;1270;24256;-71
2022/06/16 18:19:14;;;;;;;9.00;5.30;;;;;;;18.93;73.26;98768.27;221458;1268;22589;-71
2022/06/16 18:24:34;;;;;;;;;;;;;;;;;;;;;
2022/06/16 18:29:42;;;;;;;6.30;5.70;;;;;;;18.11;74.51;98773.72;221377;1268;22718;-71
2022/06/16 18:34:57;;;;;;;6.40;5.70;;;;;;;17.84;75.21;98786.92;221419;1270;22639;-72
2022/06/16 18:40:12;;;;;;;6.60;5.90;;;;;;;17.66;75.61;98785.13;221585;1270;24299;-72
2022/06/16 18:45:52;;;;;;;6.70;6.10;;;;;;;17.50;75.89;98795.97;221349;1270;25416;-71
2022/06/16 18:51:25;;;;;;;7.10;6.30;;;;;;;17.36;76.66;98797.88;221662;1270;22532;-71
2022/06/16 18:57:21;;;;;;;7.20;6.40;;;;;;;17.19;77.27;98808.27;221330;1268;22568;-71
2022/06/16 19:02:37;;;;;;;9.60;7.60;;;;;;;17.07;78.09;98801.64;221330;1270;22557;-71
2022/06/16 19:07:42;;;;;;;8.40;7.50;;;;;;;16.96;78.76;98799.93;221499;1270;24033;-72
2022/06/16 19:13:11;;;;;;;7.90;7.10;;;;;;;16.84;79.15;98811.84;221657;1268;24492;-72
2022/06/16 19:18:57;;;;;;;8.80;6.80;;;;;;;16.75;80.05;98818.38;221538;1270;23276;-72
2022/06/16 19:24:10;;;;;;;11.90;8.50;;;;;;;16.66;81.09;98816.12;221425;1270;22552;-72
2022/06/16 19:29:15;;;;;;;11.70;10.00;;;;;;;16.60;81.51;98829.65;221717;1270;22542;-72
2022/06/16 19:34:23;;;;;;;13.40;10.60;;;;;;;16.55;81.85;98829.77;221590;1268;23167;-72
2022/06/16 19:39:27;;;;;;;12.30;10.80;;;;;;;16.50;82.04;98833.70;221591;1268;25547;-72
2022/06/16 20:01:13;;;;;;;12.00;10.60;;;;;;;16.30;83.87;98846.45;221152;1270;22591;-71
2022/06/16 20:06:16;;;;;;;10.50;9.40;;;;;;;16.30;83.69;98862.89;221302;1270;22655;-71
2022/06/16 20:11:21;;;;;;;10.20;9.20;;;;;;;16.32;83.72;98883.27;221076;1270;22553;-71
2022/06/16 20:16:38;;;;;;;9.70;8.80;;;;;;;16.33;83.68;98895.67;221463;1270;22683;-73
2022/06/16 20:21:47;;;;;;;11.90;9.70;;;;;;;16.30;83.66;98903.59;221488;1270;25497;-71
2022/06/16 20:26:49;;;;;;;11.80;9.80;;;;;;;16.27;83.78;98914.14;221744;1268;23324;-72
2022/06/16 20:32:00;;;;;;;13.50;10.80;;;;;;;16.26;83.96;98926.82;221432;1270;22607;-72
2022/06/16 20:37:03;;;;;;;13.30;10.80;;;;;;;16.23;84.32;98915.77;221348;1269;22558;-72
2022/06/16 20:42:16;;;;;;;11.20;10.00;;;;;;;16.22;84.66;98899.39;221687;1268;22529;-71
2022/06/16 20:47:20;;;;;;;11.70;10.20;;;;;;;16.21;84.88;98887.41;221440;1269;23121;-72
2022/06/16 20:52:23;;;;;;;11.00;9.90;;;;;;;16.20;85.18;98872.38;221456;1269;25298;-72
2022/06/16 21:03:00;;;;;;;11.00;9.80;;;;;;;16.15;85.09;98864.06;221335;1270;22555;-72
2022/06/16 21:08:06;;;;;;;11.90;10.00;;;;;;;16.12;85.10;98869.95;221591;1270;22526;-71
2022/06/16 21:13:09;;;;;;;11.20;9.70;;;;;;;16.11;84.96;98868.84;221711;1270;22554;-72
2022/06/16 21:18:25;;;;;;;11.80;9.20;;;;;;;16.12;85.12;98867.34;221288;1270;24846;-73
2022/06/16 21:23:42;;;;;;;10.30;9.00;;;;;;;16.14;85.04;98872.60;221742;1270;22614;-73
2022/06/16 21:28:47;;;;;;;10.70;9.60;;;;;;;16.15;84.95;98879.13;221426;1271;24256;-71
2022/06/16 21:33:55;;;;;;;9.60;8.70;;;;;;;16.14;84.82;98883.33;221456;1268;22581;-72
2022/06/16 21:39:01;;;;;;;10.60;9.60;;;;;;;16.13;84.94;98891.25;221493;1268;24351;-72
2022/06/16 21:44:23;;;;;;;12.10;10.30;;;;;;;16.11;84.90;98897.95;221645;1270;22814;-71
2022/06/16 21:49:38;;;;;;;11.00;9.80;;;;;;;16.12;84.88;98903.71;221512;1268;24378;-74
2022/06/16 21:54:41;;;;;;;11.80;9.90;;;;;;;16.15;84.97;98907.77;221451;1268;22691;-72
2022/06/16 21:59:44;;;;;;;11.80;10.10;;;;;;;16.18;85.13;98910.83;221291;1268;22641;-71
2022/06/16 22:04:55;;;;;;;11.30;10.10;;;;;;;16.19;85.29;98900.38;221313;1270;24764;-71
2022/06/16 22:09:57;;;;;;;11.30;10.10;;;;;;;16.20;85.23;98904.33;221836;1270;22598;-72
2022/06/16 22:20:37;;;;;;;12.80;9.70;;;;;;;16.12;85.16;98902.98;221505;1271;22661;-72
2022/06/16 22:25:59;;;;;;;12.40;10.70;;;;;;;16.00;85.60;98903.30;221439;1268;22533;-71
2022/06/16 22:31:16;;;;;;;12.30;11.00;;;;;;;15.87;85.61;98907.08;221638;1271;22551;-72
2022/06/16 22:36:25;;;;;;;14.30;11.30;;;;;;;15.73;85.69;98902.58;221759;1270;24795;-72
2022/06/16 22:41:39;;;;;;;12.60;11.20;;;;;;;15.61;85.69;98908.81;221332;1270;22578;-72
2022/06/16 22:46:46;;;;;;;13.10;11.40;;;;;;;15.46;85.76;98908.12;221582;1271;24310;-72
2022/06/16 22:51:56;;;;;;;16.30;12.60;;;;;;;15.35;86.14;98911.15;221529;1270;22531;-73
2022/06/16 22:56:59;;;;;;;14.80;12.20;;;;;;;15.26;86.62;98906.90;221605;1271;23092;-72
2022/06/16 23:02:16;;;;;;;13.30;12.00;;;;;;;15.18;86.95;98907.23;221578;1270;22579;-72
2022/06/16 23:07:34;;;;;;;12.90;11.50;;;;;;;15.11;87.22;98902.97;221391;1271;24323;-73
2022/06/16 23:12:40;;;;;;;14.50;12.40;;;;;;;15.05;87.46;98898.84;221337;1268;22522;-72
2022/06/16 23:17:57;;;;;;;15.90;12.70;;;;;;;14.98;87.73;98902.75;221647;1271;22595;-72
2022/06/16 23:23:02;;;;;;;13.60;11.80;;;;;;;14.90;87.60;98900.98;221066;1269;22553;-70
2022/06/16 23:28:08;;;;;;;12.60;11.30;;;;;;;14.82;87.81;98904.33;221318;1271;22680;-72
2022/06/16 23:33:12;;;;;;;12.80;11.50;;;;;;;14.78;88.13;98899.65;221564;1268;25350;-71
2022/06/16 23:38:26;;;;;;;13.10;11.70;;;;;;;14.73;88.22;98900.81;221491;1269;23038;-72
2022/06/16 23:43:44;;;;;;;13.90;11.90;;;;;;;14.66;88.20;98906.43;221038;1268;23194;-72
2022/06/16 23:48:48;;;;;;;16.60;12.00;;;;;;;14.58;88.05;98911.65;221060;1270;23238;-72
2022/06/16 23:53:56;;;;;;;15.20;12.50;;;;;;;14.51;88.04;98923.70;221328;1269;22674;-72
2022/06/16 23:59:00;;;;;;;13.30;11.80;;;;;;;14.44;88.25;98916.82;221316;1268;22590;-72
